sensor_id;sensor_type;location;lat;lon;timestamp;P1;durP1;ratioP1;P2;durP2;ratioP2
26600;SDS011;14241;49.260;10.496;2023-08-01T00:01:32;6.20;;;4.10;;
26600;SDS011;14241;49.260;10.496;2023-08-01T00:03:57;7.97;;;4.47;;
26600;SDS011;14241;49.260;10.496;2023-08-01T00:06:22;7.30;;;4.03;;
26600;SDS011;14241;49.260;10.496;2023-08-01T00:08:49;5.93;;;3.97;;
26600;SDS011;14241;49.260;10.496;2023-08-01T00:11:14;8.70;;;4.37;;
26600;SDS011;14241;49.260;10.496;2023-08-01T00:13:41;5.97;;;3.95;;
26600;SDS011;14241;49.260;10.496;2023-08-01T00:16:06;7.57;;;3.80;;
26600;SDS011;14241;49.260;10.496;2023-08-01T00:18:31;6.57;;;3.78;;
26600;SDS011;14241;49.260;10.496;2023-08-01T00:20:56;6.07;;;4.30;;
26600;SDS011;14241;49.260;10.496;2023-08-01T00:23:22;7.00;;;4.20;;
26600;SDS011;14241;49.260;10.496;2023-08-01T00:25:47;4.38;;;3.35;;
26600;SDS011;14241;49.260;10.496;2023-08-01T00:28:16;10.88;;;3.67;;
26600;SDS011;14241;49.260;10.496;2023-08-01T00:30:42;6.18;;;4.30;;
26600;SDS011;14241;49.260;10.496;2023-08-01T00:33:07;6.97;;;3.60;;
26600;SDS011;14241;49.260;10.496;2023-08-01T00:35:32;7.38;;;4.13;;
26600;SDS011;14241;49.260;10.496;2023-08-01T00:37:57;4.90;;;3.60;;
26600;SDS011;14241;49.260;10.496;2023-08-01T00:40:22;6.53;;;3.90;;
26600;SDS011;14241;49.260;10.496;2023-08-01T00:42:48;5.67;;;3.50;;
26600;SDS011;14241;49.260;10.496;2023-08-01T00:45:13;8.77;;;4.00;;
26600;SDS011;14241;49.260;10.496;2023-08-01T00:47:39;4.80;;;3.70;;
26600;SDS011;14241;49.260;10.496;2023-08-01T00:50:04;9.68;;;4.18;;
26600;SDS011;14241;49.260;10.496;2023-08-01T00:52:30;6.97;;;4.05;;
26600;SDS011;14241;49.260;10.496;2023-08-01T00:54:55;7.43;;;3.95;;
26600;SDS011;14241;49.260;10.496;2023-08-01T00:57:20;7.27;;;4.10;;
26600;SDS011;14241;49.260;10.496;2023-08-01T00:59:46;5.40;;;3.70;;
26600;SDS011;14241;49.260;10.496;2023-08-01T01:02:11;8.17;;;3.90;;
26600;SDS011;14241;49.260;10.496;2023-08-01T01:04:36;5.88;;;4.18;;
26600;SDS011;14241;49.260;10.496;2023-08-01T01:07:03;7.22;;;3.55;;
26600;SDS011;14241;49.260;10.496;2023-08-01T01:09:30;5.57;;;3.70;;
26600;SDS011;14241;49.260;10.496;2023-08-01T01:11:59;3.90;;;2.85;;
26600;SDS011;14241;49.260;10.496;2023-08-01T01:14:25;5.82;;;3.72;;
26600;SDS011;14241;49.260;10.496;2023-08-01T01:16:51;5.53;;;3.70;;
26600;SDS011;14241;49.260;10.496;2023-08-01T01:19:16;9.32;;;3.38;;
26600;SDS011;14241;49.260;10.496;2023-08-01T01:21:41;4.32;;;3.22;;
26600;SDS011;14241;49.260;10.496;2023-08-01T01:24:08;6.72;;;3.63;;
26600;SDS011;14241;49.260;10.496;2023-08-01T01:26:34;5.63;;;3.47;;
26600;SDS011;14241;49.260;10.496;2023-08-01T01:29:00;5.53;;;3.10;;
26600;SDS011;14241;49.260;10.496;2023-08-01T01:31:27;7.40;;;3.80;;
26600;SDS011;14241;49.260;10.496;2023-08-01T01:33:52;5.30;;;3.45;;
26600;SDS011;14241;49.260;10.496;2023-08-01T01:36:17;5.60;;;2.90;;
26600;SDS011;14241;49.260;10.496;2023-08-01T01:38:42;6.17;;;3.67;;
26600;SDS011;14241;49.260;10.496;2023-08-01T01:41:08;7.40;;;3.83;;
26600;SDS011;14241;49.260;10.496;2023-08-01T01:43:33;5.07;;;3.20;;
26600;SDS011;14241;49.260;10.496;2023-08-01T01:45:58;6.82;;;3.30;;
26600;SDS011;14241;49.260;10.496;2023-08-01T01:48:23;6.17;;;3.63;;
26600;SDS011;14241;49.260;10.496;2023-08-01T01:50:48;6.57;;;3.70;;
26600;SDS011;14241;49.260;10.496;2023-08-01T01:53:14;4.87;;;3.40;;
26600;SDS011;14241;49.260;10.496;2023-08-01T01:55:39;5.87;;;4.00;;
26600;SDS011;14241;49.260;10.496;2023-08-01T01:58:05;5.88;;;3.88;;
26600;SDS011;14241;49.260;10.496;2023-08-01T02:00:31;6.85;;;4.00;;
26600;SDS011;14241;49.260;10.496;2023-08-01T02:02:56;6.13;;;3.53;;
26600;SDS011;14241;49.260;10.496;2023-08-01T02:05:21;6.07;;;3.60;;
26600;SDS011;14241;49.260;10.496;2023-08-01T02:07:46;5.63;;;3.57;;
26600;SDS011;14241;49.260;10.496;2023-08-01T02:10:11;6.20;;;3.60;;
26600;SDS011;14241;49.260;10.496;2023-08-01T02:12:37;9.57;;;4.00;;
26600;SDS011;14241;49.260;10.496;2023-08-01T02:15:02;6.88;;;3.70;;
26600;SDS011;14241;49.260;10.496;2023-08-01T02:17:27;5.38;;;3.80;;
26600;SDS011;14241;49.260;10.496;2023-08-01T02:19:52;5.37;;;3.93;;
26600;SDS011;14241;49.260;10.496;2023-08-01T02:22:18;6.63;;;3.50;;
26600;SDS011;14241;49.260;10.496;2023-08-01T02:24:43;6.80;;;3.90;;
26600;SDS011;14241;49.260;10.496;2023-08-01T02:27:08;5.90;;;3.60;;
26600;SDS011;14241;49.260;10.496;2023-08-01T02:29:33;7.97;;;3.38;;
26600;SDS011;14241;49.260;10.496;2023-08-01T02:31:59;7.67;;;3.90;;
26600;SDS011;14241;49.260;10.496;2023-08-01T02:34:24;8.40;;;3.40;;
26600;SDS011;14241;49.260;10.496;2023-08-01T02:36:49;5.97;;;3.70;;
26600;SDS011;14241;49.260;10.496;2023-08-01T02:39:14;6.97;;;3.87;;
26600;SDS011;14241;49.260;10.496;2023-08-01T02:41:39;11.33;;;4.13;;
26600;SDS011;14241;49.260;10.496;2023-08-01T02:44:04;5.27;;;3.60;;
26600;SDS011;14241;49.260;10.496;2023-08-01T02:46:30;6.73;;;3.77;;
26600;SDS011;14241;49.260;10.496;2023-08-01T02:48:56;6.30;;;3.97;;
26600;SDS011;14241;49.260;10.496;2023-08-01T02:51:21;6.60;;;4.17;;
26600;SDS011;14241;49.260;10.496;2023-08-01T02:53:46;5.20;;;3.57;;
26600;SDS011;14241;49.260;10.496;2023-08-01T02:56:11;5.40;;;3.75;;
26600;SDS011;14241;49.260;10.496;2023-08-01T02:58:36;8.77;;;3.83;;
26600;SDS011;14241;49.260;10.496;2023-08-01T03:01:08;6.35;;;3.55;;
26600;SDS011;14241;49.260;10.496;2023-08-01T03:03:37;7.97;;;4.32;;
26600;SDS011;14241;49.260;10.496;2023-08-01T03:06:02;5.72;;;3.90;;
26600;SDS011;14241;49.260;10.496;2023-08-01T03:08:27;6.75;;;3.75;;
26600;SDS011;14241;49.260;10.496;2023-08-01T03:10:56;8.23;;;4.10;;
26600;SDS011;14241;49.260;10.496;2023-08-01T03:13:21;7.60;;;4.00;;
26600;SDS011;14241;49.260;10.496;2023-08-01T03:15:47;6.35;;;3.47;;
26600;SDS011;14241;49.260;10.496;2023-08-01T03:18:12;7.20;;;3.63;;
26600;SDS011;14241;49.260;10.496;2023-08-01T03:20:37;5.47;;;3.47;;
26600;SDS011;14241;49.260;10.496;2023-08-01T03:23:02;6.43;;;3.80;;
26600;SDS011;14241;49.260;10.496;2023-08-01T03:25:27;5.80;;;3.77;;
26600;SDS011;14241;49.260;10.496;2023-08-01T03:27:53;6.63;;;3.38;;
26600;SDS011;14241;49.260;10.496;2023-08-01T03:30:19;8.52;;;4.15;;
26600;SDS011;14241;49.260;10.496;2023-08-01T03:32:45;5.60;;;3.83;;
26600;SDS011;14241;49.260;10.496;2023-08-01T03:35:10;5.33;;;3.43;;
26600;SDS011;14241;49.260;10.496;2023-08-01T03:37:36;8.30;;;3.87;;
26600;SDS011;14241;49.260;10.496;2023-08-01T03:40:01;6.47;;;3.80;;
26600;SDS011;14241;49.260;10.496;2023-08-01T03:42:26;4.60;;;3.67;;
26600;SDS011;14241;49.260;10.496;2023-08-01T03:44:51;6.40;;;4.00;;
26600;SDS011;14241;49.260;10.496;2023-08-01T03:47:16;4.57;;;3.50;;
26600;SDS011;14241;49.260;10.496;2023-08-01T03:49:41;4.10;;;3.17;;
26600;SDS011;14241;49.260;10.496;2023-08-01T03:52:07;5.30;;;3.50;;
26600;SDS011;14241;49.260;10.496;2023-08-01T03:54:32;7.33;;;4.00;;
26600;SDS011;14241;49.260;10.496;2023-08-01T03:56:57;6.03;;;3.43;;
26600;SDS011;14241;49.260;10.496;2023-08-01T03:59:22;6.87;;;3.83;;
26600;SDS011;14241;49.260;10.496;2023-08-01T04:01:47;5.78;;;3.60;;
26600;SDS011;14241;49.260;10.496;2023-08-01T04:04:13;5.23;;;4.17;;
26600;SDS011;14241;49.260;10.496;2023-08-01T04:06:38;7.63;;;3.90;;
26600;SDS011;14241;49.260;10.496;2023-08-01T04:09:03;8.60;;;4.22;;
26600;SDS011;14241;49.260;10.496;2023-08-01T04:11:28;6.80;;;3.95;;
26600;SDS011;14241;49.260;10.496;2023-08-01T04:13:55;6.43;;;4.13;;
26600;SDS011;14241;49.260;10.496;2023-08-01T04:16:20;8.75;;;4.30;;
26600;SDS011;14241;49.260;10.496;2023-08-01T04:18:45;6.03;;;3.97;;
26600;SDS011;14241;49.260;10.496;2023-08-01T04:21:12;6.65;;;3.83;;
26600;SDS011;14241;49.260;10.496;2023-08-01T04:23:37;7.28;;;4.30;;
26600;SDS011;14241;49.260;10.496;2023-08-01T04:26:02;6.00;;;4.57;;
26600;SDS011;14241;49.260;10.496;2023-08-01T04:28:30;8.73;;;4.00;;
26600;SDS011;14241;49.260;10.496;2023-08-01T04:30:56;6.43;;;4.57;;
26600;SDS011;14241;49.260;10.496;2023-08-01T04:33:21;6.27;;;3.80;;
26600;SDS011;14241;49.260;10.496;2023-08-01T04:35:46;8.40;;;4.70;;
26600;SDS011;14241;49.260;10.496;2023-08-01T04:38:11;9.13;;;4.72;;
26600;SDS011;14241;49.260;10.496;2023-08-01T04:40:37;10.43;;;5.07;;
26600;SDS011;14241;49.260;10.496;2023-08-01T04:43:02;9.43;;;4.87;;
26600;SDS011;14241;49.260;10.496;2023-08-01T04:45:27;6.15;;;3.85;;
26600;SDS011;14241;49.260;10.496;2023-08-01T04:47:53;9.87;;;4.50;;
26600;SDS011;14241;49.260;10.496;2023-08-01T04:50:18;6.23;;;3.93;;
26600;SDS011;14241;49.260;10.496;2023-08-01T04:52:43;6.10;;;4.28;;
26600;SDS011;14241;49.260;10.496;2023-08-01T04:55:08;7.93;;;4.40;;
26600;SDS011;14241;49.260;10.496;2023-08-01T04:57:33;5.63;;;3.87;;
26600;SDS011;14241;49.260;10.496;2023-08-01T04:59:59;5.50;;;3.97;;
26600;SDS011;14241;49.260;10.496;2023-08-01T05:02:24;5.80;;;4.13;;
26600;SDS011;14241;49.260;10.496;2023-08-01T05:04:49;8.07;;;4.50;;
26600;SDS011;14241;49.260;10.496;2023-08-01T05:07:15;5.93;;;3.90;;
26600;SDS011;14241;49.260;10.496;2023-08-01T05:09:40;5.60;;;3.70;;
26600;SDS011;14241;49.260;10.496;2023-08-01T05:12:05;5.10;;;3.90;;
26600;SDS011;14241;49.260;10.496;2023-08-01T05:14:30;8.60;;;4.20;;
26600;SDS011;14241;49.260;10.496;2023-08-01T05:16:56;5.37;;;3.53;;
26600;SDS011;14241;49.260;10.496;2023-08-01T05:19:21;5.43;;;3.57;;
26600;SDS011;14241;49.260;10.496;2023-08-01T05:21:46;7.03;;;4.60;;
26600;SDS011;14241;49.260;10.496;2023-08-01T05:24:11;6.50;;;3.75;;
26600;SDS011;14241;49.260;10.496;2023-08-01T05:26:36;6.33;;;3.77;;
26600;SDS011;14241;49.260;10.496;2023-08-01T05:29:02;7.93;;;4.40;;
26600;SDS011;14241;49.260;10.496;2023-08-01T05:31:27;6.65;;;3.80;;
26600;SDS011;14241;49.260;10.496;2023-08-01T05:33:52;6.13;;;3.97;;
26600;SDS011;14241;49.260;10.496;2023-08-01T05:36:17;5.17;;;3.73;;
26600;SDS011;14241;49.260;10.496;2023-08-01T05:38:43;6.97;;;4.07;;
26600;SDS011;14241;49.260;10.496;2023-08-01T05:41:08;6.47;;;4.13;;
26600;SDS011;14241;49.260;10.496;2023-08-01T05:43:33;6.15;;;3.75;;
26600;SDS011;14241;49.260;10.496;2023-08-01T05:45:58;7.37;;;3.80;;
26600;SDS011;14241;49.260;10.496;2023-08-01T05:48:23;7.73;;;4.10;;
26600;SDS011;14241;49.260;10.496;2023-08-01T05:50:49;5.20;;;3.50;;
26600;SDS011;14241;49.260;10.496;2023-08-01T05:53:14;5.07;;;3.67;;
26600;SDS011;14241;49.260;10.496;2023-08-01T05:55:39;7.17;;;4.10;;
26600;SDS011;14241;49.260;10.496;2023-08-01T05:58:04;10.67;;;4.20;;
26600;SDS011;14241;49.260;10.496;2023-08-01T06:00:29;8.43;;;3.55;;
26600;SDS011;14241;49.260;10.496;2023-08-01T06:02:55;5.80;;;3.63;;
26600;SDS011;14241;49.260;10.496;2023-08-01T06:05:20;6.63;;;4.30;;
26600;SDS011;14241;49.260;10.496;2023-08-01T06:07:45;7.80;;;3.50;;
26600;SDS011;14241;49.260;10.496;2023-08-01T06:10:11;7.00;;;4.07;;
26600;SDS011;14241;49.260;10.496;2023-08-01T06:12:36;6.60;;;3.70;;
26600;SDS011;14241;49.260;10.496;2023-08-01T06:15:01;7.10;;;4.03;;
26600;SDS011;14241;49.260;10.496;2023-08-01T06:17:26;5.83;;;4.00;;
26600;SDS011;14241;49.260;10.496;2023-08-01T06:19:51;8.80;;;3.37;;
26600;SDS011;14241;49.260;10.496;2023-08-01T06:22:17;6.30;;;3.78;;
26600;SDS011;14241;49.260;10.496;2023-08-01T06:24:42;9.10;;;4.20;;
26600;SDS011;14241;49.260;10.496;2023-08-01T06:27:07;6.93;;;3.83;;
26600;SDS011;14241;49.260;10.496;2023-08-01T06:29:32;6.27;;;3.73;;
26600;SDS011;14241;49.260;10.496;2023-08-01T06:31:58;7.20;;;3.67;;
26600;SDS011;14241;49.260;10.496;2023-08-01T06:34:23;6.47;;;4.30;;
26600;SDS011;14241;49.260;10.496;2023-08-01T06:36:50;6.05;;;3.75;;
26600;SDS011;14241;49.260;10.496;2023-08-01T06:39:15;7.45;;;4.13;;
26600;SDS011;14241;49.260;10.496;2023-08-01T06:41:40;8.30;;;4.60;;
26600;SDS011;14241;49.260;10.496;2023-08-01T06:44:05;6.83;;;4.40;;
26600;SDS011;14241;49.260;10.496;2023-08-01T06:46:30;6.90;;;3.77;;
26600;SDS011;14241;49.260;10.496;2023-08-01T06:48:56;9.53;;;4.73;;
26600;SDS011;14241;49.260;10.496;2023-08-01T06:51:21;8.45;;;4.45;;
26600;SDS011;14241;49.260;10.496;2023-08-01T06:53:46;9.13;;;4.30;;
26600;SDS011;14241;49.260;10.496;2023-08-01T06:56:11;8.17;;;4.53;;
26600;SDS011;14241;49.260;10.496;2023-08-01T06:58:36;7.30;;;4.53;;
26600;SDS011;14241;49.260;10.496;2023-08-01T07:01:02;9.63;;;4.37;;
26600;SDS011;14241;49.260;10.496;2023-08-01T07:03:27;7.10;;;4.20;;
26600;SDS011;14241;49.260;10.496;2023-08-01T07:05:52;7.73;;;4.37;;
26600;SDS011;14241;49.260;10.496;2023-08-01T07:08:18;7.90;;;4.10;;
26600;SDS011;14241;49.260;10.496;2023-08-01T07:10:43;8.53;;;4.83;;
26600;SDS011;14241;49.260;10.496;2023-08-01T07:13:08;6.23;;;4.10;;
26600;SDS011;14241;49.260;10.496;2023-08-01T07:15:33;9.00;;;4.67;;
26600;SDS011;14241;49.260;10.496;2023-08-01T07:17:58;8.32;;;4.68;;
26600;SDS011;14241;49.260;10.496;2023-08-01T07:20:24;8.70;;;4.15;;
26600;SDS011;14241;49.260;10.496;2023-08-01T07:22:49;7.00;;;4.57;;
26600;SDS011;14241;49.260;10.496;2023-08-01T07:25:14;8.43;;;4.40;;
26600;SDS011;14241;49.260;10.496;2023-08-01T07:27:41;7.03;;;4.40;;
26600;SDS011;14241;49.260;10.496;2023-08-01T07:30:06;6.57;;;4.23;;
26600;SDS011;14241;49.260;10.496;2023-08-01T07:32:31;6.30;;;3.80;;
26600;SDS011;14241;49.260;10.496;2023-08-01T07:34:56;8.47;;;3.67;;
26600;SDS011;14241;49.260;10.496;2023-08-01T07:37:22;6.90;;;3.67;;
26600;SDS011;14241;49.260;10.496;2023-08-01T07:39:47;6.53;;;3.93;;
26600;SDS011;14241;49.260;10.496;2023-08-01T07:42:12;7.77;;;3.70;;
26600;SDS011;14241;49.260;10.496;2023-08-01T07:44:37;7.63;;;3.97;;
26600;SDS011;14241;49.260;10.496;2023-08-01T07:47:02;7.23;;;3.73;;
26600;SDS011;14241;49.260;10.496;2023-08-01T07:49:28;5.63;;;3.47;;
26600;SDS011;14241;49.260;10.496;2023-08-01T07:51:54;6.88;;;3.50;;
26600;SDS011;14241;49.260;10.496;2023-08-01T07:54:19;5.07;;;3.20;;
26600;SDS011;14241;49.260;10.496;2023-08-01T07:56:44;6.00;;;3.53;;
26600;SDS011;14241;49.260;10.496;2023-08-01T07:59:13;4.95;;;3.38;;
26600;SDS011;14241;49.260;10.496;2023-08-01T08:01:38;7.35;;;3.70;;
26600;SDS011;14241;49.260;10.496;2023-08-01T08:04:05;5.82;;;3.75;;
26600;SDS011;14241;49.260;10.496;2023-08-01T08:06:30;7.37;;;3.70;;
26600;SDS011;14241;49.260;10.496;2023-08-01T08:08:56;6.90;;;4.10;;
26600;SDS011;14241;49.260;10.496;2023-08-01T08:11:21;7.23;;;3.37;;
26600;SDS011;14241;49.260;10.496;2023-08-01T08:13:46;7.20;;;4.13;;
26600;SDS011;14241;49.260;10.496;2023-08-01T08:16:11;5.60;;;4.20;;
26600;SDS011;14241;49.260;10.496;2023-08-01T08:18:36;6.80;;;4.40;;
26600;SDS011;14241;49.260;10.496;2023-08-01T08:21:02;8.27;;;4.77;;
26600;SDS011;14241;49.260;10.496;2023-08-01T08:23:27;7.80;;;4.67;;
26600;SDS011;14241;49.260;10.496;2023-08-01T08:25:52;9.77;;;5.13;;
26600;SDS011;14241;49.260;10.496;2023-08-01T08:28:27;7.65;;;5.05;;
26600;SDS011;14241;49.260;10.496;2023-08-01T08:30:52;8.25;;;5.55;;
26600;SDS011;14241;49.260;10.496;2023-08-01T08:33:19;7.50;;;5.37;;
26600;SDS011;14241;49.260;10.496;2023-08-01T08:35:44;7.97;;;5.20;;
26600;SDS011;14241;49.260;10.496;2023-08-01T08:38:09;8.73;;;4.80;;
26600;SDS011;14241;49.260;10.496;2023-08-01T08:40:35;7.57;;;4.57;;
26600;SDS011;14241;49.260;10.496;2023-08-01T08:43:04;7.57;;;5.10;;
26600;SDS011;14241;49.260;10.496;2023-08-01T08:45:32;7.67;;;4.87;;
26600;SDS011;14241;49.260;10.496;2023-08-01T08:47:59;6.97;;;4.68;;
26600;SDS011;14241;49.260;10.496;2023-08-01T08:50:25;7.07;;;5.70;;
26600;SDS011;14241;49.260;10.496;2023-08-01T08:52:51;7.63;;;4.93;;
26600;SDS011;14241;49.260;10.496;2023-08-01T08:55:16;9.13;;;5.82;;
26600;SDS011;14241;49.260;10.496;2023-08-01T08:57:42;7.00;;;5.38;;
26600;SDS011;14241;49.260;10.496;2023-08-01T09:00:09;6.97;;;5.70;;
26600;SDS011;14241;49.260;10.496;2023-08-01T09:02:35;7.18;;;5.32;;
26600;SDS011;14241;49.260;10.496;2023-08-01T09:05:01;8.23;;;5.45;;
26600;SDS011;14241;49.260;10.496;2023-08-01T09:07:27;8.35;;;5.15;;
26600;SDS011;14241;49.260;10.496;2023-08-01T09:09:54;6.88;;;5.35;;
26600;SDS011;14241;49.260;10.496;2023-08-01T09:12:19;10.23;;;5.90;;
26600;SDS011;14241;49.260;10.496;2023-08-01T09:14:45;8.48;;;5.65;;
26600;SDS011;14241;49.260;10.496;2023-08-01T09:17:12;6.65;;;5.10;;
26600;SDS011;14241;49.260;10.496;2023-08-01T09:19:39;8.38;;;4.70;;
26600;SDS011;14241;49.260;10.496;2023-08-01T09:22:11;7.83;;;5.40;;
26600;SDS011;14241;49.260;10.496;2023-08-01T09:24:36;8.75;;;5.72;;
26600;SDS011;14241;49.260;10.496;2023-08-01T09:27:02;8.77;;;5.63;;
26600;SDS011;14241;49.260;10.496;2023-08-01T09:29:31;7.22;;;4.60;;
26600;SDS011;14241;49.260;10.496;2023-08-01T09:31:59;7.32;;;4.68;;
26600;SDS011;14241;49.260;10.496;2023-08-01T09:34:25;4.88;;;4.03;;
26600;SDS011;14241;49.260;10.496;2023-08-01T09:36:50;6.97;;;4.85;;
26600;SDS011;14241;49.260;10.496;2023-08-01T09:39:20;6.18;;;4.40;;
26600;SDS011;14241;49.260;10.496;2023-08-01T09:41:46;6.78;;;3.67;;
26600;SDS011;14241;49.260;10.496;2023-08-01T09:44:11;5.97;;;3.40;;
26600;SDS011;14241;49.260;10.496;2023-08-01T09:46:37;4.63;;;3.35;;
26600;SDS011;14241;49.260;10.496;2023-08-01T09:49:09;6.10;;;3.00;;
26600;SDS011;14241;49.260;10.496;2023-08-01T09:51:45;6.70;;;3.05;;
26600;SDS011;14241;49.260;10.496;2023-08-01T09:54:10;3.10;;;2.58;;
26600;SDS011;14241;49.260;10.496;2023-08-01T09:56:35;3.63;;;2.73;;
26600;SDS011;14241;49.260;10.496;2023-08-01T09:59:01;4.63;;;2.38;;
26600;SDS011;14241;49.260;10.496;2023-08-01T10:01:26;4.77;;;2.93;;
26600;SDS011;14241;49.260;10.496;2023-08-01T10:03:53;4.28;;;2.85;;
26600;SDS011;14241;49.260;10.496;2023-08-01T10:06:19;3.20;;;2.50;;
26600;SDS011;14241;49.260;10.496;2023-08-01T10:08:45;4.55;;;2.58;;
26600;SDS011;14241;49.260;10.496;2023-08-01T10:11:11;3.30;;;2.42;;
26600;SDS011;14241;49.260;10.496;2023-08-01T10:13:36;4.47;;;2.70;;
26600;SDS011;14241;49.260;10.496;2023-08-01T10:16:02;3.75;;;2.40;;
26600;SDS011;14241;49.260;10.496;2023-08-01T10:18:27;4.45;;;2.55;;
26600;SDS011;14241;49.260;10.496;2023-08-01T10:20:53;3.63;;;1.98;;
26600;SDS011;14241;49.260;10.496;2023-08-01T10:23:18;3.47;;;2.20;;
26600;SDS011;14241;49.260;10.496;2023-08-01T10:25:44;3.00;;;2.00;;
26600;SDS011;14241;49.260;10.496;2023-08-01T10:28:09;2.72;;;1.98;;
26600;SDS011;14241;49.260;10.496;2023-08-01T10:30:34;2.67;;;1.63;;
26600;SDS011;14241;49.260;10.496;2023-08-01T10:33:00;3.45;;;1.90;;
26600;SDS011;14241;49.260;10.496;2023-08-01T10:38:17;3.25;;;1.65;;
26600;SDS011;14241;49.260;10.496;2023-08-01T10:40:42;2.20;;;1.48;;
26600;SDS011;14241;49.260;10.496;2023-08-01T10:43:20;1.98;;;1.52;;
26600;SDS011;14241;49.260;10.496;2023-08-01T10:45:48;1.23;;;1.10;;
26600;SDS011;14241;49.260;10.496;2023-08-01T10:48:13;1.95;;;1.60;;
26600;SDS011;14241;49.260;10.496;2023-08-01T10:50:39;1.53;;;1.27;;
26600;SDS011;14241;49.260;10.496;2023-08-01T10:53:05;1.42;;;1.20;;
26600;SDS011;14241;49.260;10.496;2023-08-01T10:55:40;1.45;;;1.13;;
26600;SDS011;14241;49.260;10.496;2023-08-01T10:58:05;2.13;;;1.45;;
26600;SDS011;14241;49.260;10.496;2023-08-01T11:00:31;1.30;;;0.90;;
26600;SDS011;14241;49.260;10.496;2023-08-01T11:02:56;1.23;;;1.00;;
26600;SDS011;14241;49.260;10.496;2023-08-01T11:05:21;1.20;;;1.00;;
26600;SDS011;14241;49.260;10.496;2023-08-01T11:07:55;1.35;;;1.15;;
26600;SDS011;14241;49.260;10.496;2023-08-01T11:10:21;1.95;;;1.08;;
26600;SDS011;14241;49.260;10.496;2023-08-01T11:12:46;1.67;;;1.00;;
26600;SDS011;14241;49.260;10.496;2023-08-01T11:15:13;1.55;;;1.10;;
26600;SDS011;14241;49.260;10.496;2023-08-01T11:17:42;1.55;;;1.10;;
26600;SDS011;14241;49.260;10.496;2023-08-01T11:20:08;1.55;;;0.90;;
26600;SDS011;14241;49.260;10.496;2023-08-01T11:22:34;1.52;;;0.93;;
26600;SDS011;14241;49.260;10.496;2023-08-01T11:25:00;1.70;;;1.00;;
26600;SDS011;14241;49.260;10.496;2023-08-01T11:27:25;3.75;;;0.90;;
26600;SDS011;14241;49.260;10.496;2023-08-01T11:29:51;0.93;;;0.77;;
26600;SDS011;14241;49.260;10.496;2023-08-01T11:32:16;2.55;;;0.82;;
26600;SDS011;14241;49.260;10.496;2023-08-01T11:34:42;0.80;;;0.80;;
26600;SDS011;14241;49.260;10.496;2023-08-01T11:37:11;1.27;;;1.00;;
26600;SDS011;14241;49.260;10.496;2023-08-01T11:39:36;0.88;;;0.77;;
26600;SDS011;14241;49.260;10.496;2023-08-01T11:42:02;2.05;;;0.90;;
26600;SDS011;14241;49.260;10.496;2023-08-01T11:44:28;0.98;;;0.75;;
26600;SDS011;14241;49.260;10.496;2023-08-01T11:46:53;1.15;;;0.80;;
26600;SDS011;14241;49.260;10.496;2023-08-01T11:49:18;1.00;;;0.80;;
26600;SDS011;14241;49.260;10.496;2023-08-01T11:51:44;1.60;;;0.70;;
26600;SDS011;14241;49.260;10.496;2023-08-01T11:54:10;2.28;;;0.77;;
26600;SDS011;14241;49.260;10.496;2023-08-01T11:56:36;0.90;;;0.70;;
26600;SDS011;14241;49.260;10.496;2023-08-01T11:59:12;1.17;;;0.70;;
26600;SDS011;14241;49.260;10.496;2023-08-01T12:01:38;1.92;;;0.60;;
26600;SDS011;14241;49.260;10.496;2023-08-01T12:04:03;0.75;;;0.75;;
26600;SDS011;14241;49.260;10.496;2023-08-01T12:06:30;0.50;;;0.40;;
26600;SDS011;14241;49.260;10.496;2023-08-01T12:09:05;1.15;;;0.70;;
26600;SDS011;14241;49.260;10.496;2023-08-01T12:11:30;2.30;;;0.73;;
26600;SDS011;14241;49.260;10.496;2023-08-01T12:16:27;1.95;;;0.63;;
26600;SDS011;14241;49.260;10.496;2023-08-01T12:18:52;2.40;;;0.57;;
26600;SDS011;14241;49.260;10.496;2023-08-01T12:21:17;0.82;;;0.75;;
26600;SDS011;14241;49.260;10.496;2023-08-01T12:23:43;0.90;;;0.60;;
26600;SDS011;14241;49.260;10.496;2023-08-01T12:26:08;0.70;;;0.70;;
26600;SDS011;14241;49.260;10.496;2023-08-01T12:28:33;1.42;;;0.60;;
26600;SDS011;14241;49.260;10.496;2023-08-01T12:30:59;1.35;;;0.80;;
26600;SDS011;14241;49.260;10.496;2023-08-01T12:33:24;1.47;;;0.70;;
26600;SDS011;14241;49.260;10.496;2023-08-01T12:35:49;5.57;;;1.55;;
26600;SDS011;14241;49.260;10.496;2023-08-01T12:38:14;6.17;;;1.90;;
26600;SDS011;14241;49.260;10.496;2023-08-01T12:40:40;6.37;;;2.23;;
26600;SDS011;14241;49.260;10.496;2023-08-01T12:43:05;5.83;;;1.60;;
26600;SDS011;14241;49.260;10.496;2023-08-01T12:45:30;6.17;;;1.40;;
26600;SDS011;14241;49.260;10.496;2023-08-01T12:47:55;4.53;;;1.50;;
26600;SDS011;14241;49.260;10.496;2023-08-01T12:50:20;5.43;;;1.27;;
26600;SDS011;14241;49.260;10.496;2023-08-01T12:52:46;3.93;;;1.17;;
26600;SDS011;14241;49.260;10.496;2023-08-01T12:55:11;2.50;;;1.00;;
26600;SDS011;14241;49.260;10.496;2023-08-01T12:57:36;3.03;;;1.37;;
26600;SDS011;14241;49.260;10.496;2023-08-01T13:00:01;2.63;;;1.08;;
26600;SDS011;14241;49.260;10.496;2023-08-01T13:02:27;1.85;;;0.88;;
26600;SDS011;14241;49.260;10.496;2023-08-01T13:04:52;1.60;;;0.90;;
26600;SDS011;14241;49.260;10.496;2023-08-01T13:07:17;4.15;;;0.93;;
26600;SDS011;14241;49.260;10.496;2023-08-01T13:09:42;1.77;;;1.00;;
26600;SDS011;14241;49.260;10.496;2023-08-01T13:12:08;2.13;;;1.00;;
26600;SDS011;14241;49.260;10.496;2023-08-01T13:14:33;2.15;;;1.00;;
26600;SDS011;14241;49.260;10.496;2023-08-01T13:16:58;1.37;;;1.10;;
26600;SDS011;14241;49.260;10.496;2023-08-01T13:19:24;1.63;;;0.90;;
26600;SDS011;14241;49.260;10.496;2023-08-01T13:21:49;2.00;;;1.20;;
26600;SDS011;14241;49.260;10.496;2023-08-01T13:24:14;2.00;;;1.27;;
26600;SDS011;14241;49.260;10.496;2023-08-01T13:26:39;1.50;;;1.20;;
26600;SDS011;14241;49.260;10.496;2023-08-01T13:29:04;2.33;;;0.90;;
26600;SDS011;14241;49.260;10.496;2023-08-01T13:31:30;1.90;;;1.00;;
26600;SDS011;14241;49.260;10.496;2023-08-01T13:33:55;1.77;;;1.27;;
26600;SDS011;14241;49.260;10.496;2023-08-01T13:36:20;1.63;;;1.10;;
26600;SDS011;14241;49.260;10.496;2023-08-01T13:38:45;1.83;;;0.87;;
26600;SDS011;14241;49.260;10.496;2023-08-01T13:41:11;1.50;;;1.00;;
26600;SDS011;14241;49.260;10.496;2023-08-01T13:43:36;3.03;;;1.00;;
26600;SDS011;14241;49.260;10.496;2023-08-01T13:46:09;2.65;;;0.80;;
26600;SDS011;14241;49.260;10.496;2023-08-01T13:48:34;2.95;;;1.38;;
26600;SDS011;14241;49.260;10.496;2023-08-01T13:51:00;1.10;;;0.93;;
26600;SDS011;14241;49.260;10.496;2023-08-01T13:53:25;4.70;;;1.17;;
26600;SDS011;14241;49.260;10.496;2023-08-01T13:55:50;1.93;;;1.23;;
26600;SDS011;14241;49.260;10.496;2023-08-01T13:58:15;1.20;;;1.10;;
26600;SDS011;14241;49.260;10.496;2023-08-01T14:00:42;3.28;;;1.40;;
26600;SDS011;14241;49.260;10.496;2023-08-01T14:03:07;1.43;;;0.90;;
26600;SDS011;14241;49.260;10.496;2023-08-01T14:05:32;3.57;;;1.30;;
26600;SDS011;14241;49.260;10.496;2023-08-01T14:07:57;4.10;;;1.30;;
26600;SDS011;14241;49.260;10.496;2023-08-01T14:10:24;2.75;;;1.10;;
26600;SDS011;14241;49.260;10.496;2023-08-01T14:12:50;3.97;;;1.07;;
26600;SDS011;14241;49.260;10.496;2023-08-01T14:15:15;1.17;;;0.97;;
26600;SDS011;14241;49.260;10.496;2023-08-01T14:17:40;2.20;;;1.00;;
26600;SDS011;14241;49.260;10.496;2023-08-01T14:20:05;1.20;;;0.97;;
26600;SDS011;14241;49.260;10.496;2023-08-01T14:22:31;1.50;;;1.23;;
26600;SDS011;14241;49.260;10.496;2023-08-01T14:24:56;2.53;;;0.90;;
26600;SDS011;14241;49.260;10.496;2023-08-01T14:27:21;2.93;;;1.10;;
26600;SDS011;14241;49.260;10.496;2023-08-01T14:29:46;2.88;;;1.00;;